sensor_id;sensor_type;location;lat;lon;timestamp;temperature;humidity
10644;DHT22;5370;50.132;8.626;2024-03-22T00:00:41;10.10;65.70
10644;DHT22;5370;50.132;8.626;2024-03-22T00:03:07;10.10;66.10
10644;DHT22;5370;50.132;8.626;2024-03-22T00:05:32;10.10;66.30
10644;DHT22;5370;50.132;8.626;2024-03-22T00:07:57;10.00;66.50
10644;DHT22;5370;50.132;8.626;2024-03-22T00:10:23;10.00;66.60
10644;DHT22;5370;50.132;8.626;2024-03-22T00:12:49;10.00;66.80
10644;DHT22;5370;50.132;8.626;2024-03-22T00:15:15;10.00;67.00
10644;DHT22;5370;50.132;8.626;2024-03-22T00:17:42;9.90;68.10
10644;DHT22;5370;50.132;8.626;2024-03-22T00:20:08;9.90;68.30
10644;DHT22;5370;50.132;8.626;2024-03-22T00:22:33;9.90;68.50
10644;DHT22;5370;50.132;8.626;2024-03-22T00:24:59;9.90;68.70
10644;DHT22;5370;50.132;8.626;2024-03-22T00:27:24;9.80;68.80
10644;DHT22;5370;50.132;8.626;2024-03-22T00:29:50;9.80;69.00
10644;DHT22;5370;50.132;8.626;2024-03-22T00:32:16;9.80;69.20
10644;DHT22;5370;50.132;8.626;2024-03-22T00:34:41;9.80;69.40
10644;DHT22;5370;50.132;8.626;2024-03-22T00:37:07;9.80;69.50
10644;DHT22;5370;50.132;8.626;2024-03-22T00:39:32;9.80;69.70
10644;DHT22;5370;50.132;8.626;2024-03-22T00:41:58;9.90;70.00
10644;DHT22;5370;50.132;8.626;2024-03-22T00:44:23;9.90;70.00
10644;DHT22;5370;50.132;8.626;2024-03-22T00:46:49;9.90;70.10
10644;DHT22;5370;50.132;8.626;2024-03-22T00:49:14;9.90;70.20
10644;DHT22;5370;50.132;8.626;2024-03-22T00:51:40;9.90;70.40
10644;DHT22;5370;50.132;8.626;2024-03-22T00:54:08;9.90;70.40
10644;DHT22;5370;50.132;8.626;2024-03-22T00:56:34;9.90;70.50
10644;DHT22;5370;50.132;8.626;2024-03-22T00:58:59;9.90;70.50
10644;DHT22;5370;50.132;8.626;2024-03-22T01:01:25;9.90;70.50
10644;DHT22;5370;50.132;8.626;2024-03-22T01:03:50;9.90;70.60
10644;DHT22;5370;50.132;8.626;2024-03-22T01:06:16;9.80;70.70
10644;DHT22;5370;50.132;8.626;2024-03-22T01:08:42;9.80;70.80
10644;DHT22;5370;50.132;8.626;2024-03-22T01:11:07;9.80;71.00
10644;DHT22;5370;50.132;8.626;2024-03-22T01:13:33;9.80;71.20
10644;DHT22;5370;50.132;8.626;2024-03-22T01:15:58;9.70;71.20
10644;DHT22;5370;50.132;8.626;2024-03-22T01:18:24;9.70;71.40
10644;DHT22;5370;50.132;8.626;2024-03-22T01:20:50;9.70;71.50
10644;DHT22;5370;50.132;8.626;2024-03-22T01:23:15;9.70;71.60
10644;DHT22;5370;50.132;8.626;2024-03-22T01:25:41;9.70;71.70
10644;DHT22;5370;50.132;8.626;2024-03-22T01:28:06;9.60;71.70
10644;DHT22;5370;50.132;8.626;2024-03-22T01:30:32;9.60;71.90
10644;DHT22;5370;50.132;8.626;2024-03-22T01:32:59;9.60;72.10
10644;DHT22;5370;50.132;8.626;2024-03-22T01:35:24;9.60;72.10
10644;DHT22;5370;50.132;8.626;2024-03-22T01:37:50;9.50;72.20
10644;DHT22;5370;50.132;8.626;2024-03-22T01:40:15;9.50;72.40
10644;DHT22;5370;50.132;8.626;2024-03-22T01:42:41;9.50;72.60
10644;DHT22;5370;50.132;8.626;2024-03-22T01:45:07;9.50;72.70
10644;DHT22;5370;50.132;8.626;2024-03-22T01:47:33;9.40;72.70
10644;DHT22;5370;50.132;8.626;2024-03-22T01:50:00;9.40;72.80
10644;DHT22;5370;50.132;8.626;2024-03-22T01:52:27;9.40;72.80
10644;DHT22;5370;50.132;8.626;2024-03-22T01:54:52;9.30;72.90
10644;DHT22;5370;50.132;8.626;2024-03-22T01:57:18;9.30;73.10
10644;DHT22;5370;50.132;8.626;2024-03-22T01:59:46;9.20;73.20
10644;DHT22;5370;50.132;8.626;2024-03-22T02:02:15;9.20;73.40
10644;DHT22;5370;50.132;8.626;2024-03-22T02:04:42;9.20;73.60
10644;DHT22;5370;50.132;8.626;2024-03-22T02:07:07;9.10;73.70
10644;DHT22;5370;50.132;8.626;2024-03-22T02:09:33;9.10;73.90
10644;DHT22;5370;50.132;8.626;2024-03-22T02:11:58;9.10;74.00
10644;DHT22;5370;50.132;8.626;2024-03-22T02:14:24;9.00;73.90
10644;DHT22;5370;50.132;8.626;2024-03-22T02:16:50;9.00;74.00
10644;DHT22;5370;50.132;8.626;2024-03-22T02:19:16;8.90;74.10
10644;DHT22;5370;50.132;8.626;2024-03-22T02:21:41;8.90;74.20
10644;DHT22;5370;50.132;8.626;2024-03-22T02:24:07;8.90;74.40
10644;DHT22;5370;50.132;8.626;2024-03-22T02:26:33;8.80;74.50
10644;DHT22;5370;50.132;8.626;2024-03-22T02:28:59;8.80;74.70
10644;DHT22;5370;50.132;8.626;2024-03-22T02:31:24;8.70;74.80
10644;DHT22;5370;50.132;8.626;2024-03-22T02:33:52;8.70;75.00
10644;DHT22;5370;50.132;8.626;2024-03-22T02:36:17;8.70;75.30
10644;DHT22;5370;50.132;8.626;2024-03-22T02:38:45;8.70;75.50
10644;DHT22;5370;50.132;8.626;2024-03-22T02:41:11;8.70;75.80
10644;DHT22;5370;50.132;8.626;2024-03-22T02:43:36;8.70;76.00
10644;DHT22;5370;50.132;8.626;2024-03-22T02:46:02;8.70;76.10
10644;DHT22;5370;50.132;8.626;2024-03-22T02:48:28;8.70;76.20
10644;DHT22;5370;50.132;8.626;2024-03-22T02:50:55;8.60;76.40
10644;DHT22;5370;50.132;8.626;2024-03-22T02:53:21;8.60;76.50
10644;DHT22;5370;50.132;8.626;2024-03-22T02:55:53;8.60;76.60
10644;DHT22;5370;50.132;8.626;2024-03-22T02:58:20;8.60;76.90
10644;DHT22;5370;50.132;8.626;2024-03-22T03:00:45;8.60;77.20
10644;DHT22;5370;50.132;8.626;2024-03-22T03:03:11;8.60;77.10
10644;DHT22;5370;50.132;8.626;2024-03-22T03:05:36;8.60;77.30
10644;DHT22;5370;50.132;8.626;2024-03-22T03:08:02;8.60;77.50
10644;DHT22;5370;50.132;8.626;2024-03-22T03:10:29;8.70;77.70
10644;DHT22;5370;50.132;8.626;2024-03-22T03:12:57;8.60;77.70
10644;DHT22;5370;50.132;8.626;2024-03-22T03:15:22;8.60;78.00
10644;DHT22;5370;50.132;8.626;2024-03-22T03:17:48;8.60;78.10
10644;DHT22;5370;50.132;8.626;2024-03-22T03:20:14;8.60;78.30
10644;DHT22;5370;50.132;8.626;2024-03-22T03:22:40;8.60;78.50
10644;DHT22;5370;50.132;8.626;2024-03-22T03:25:06;8.60;78.70
10644;DHT22;5370;50.132;8.626;2024-03-22T03:27:32;8.60;78.90
10644;DHT22;5370;50.132;8.626;2024-03-22T03:29:58;8.60;79.00
10644;DHT22;5370;50.132;8.626;2024-03-22T03:32:24;8.60;79.20
10644;DHT22;5370;50.132;8.626;2024-03-22T03:34:50;8.70;79.50
10644;DHT22;5370;50.132;8.626;2024-03-22T03:37:16;8.70;79.70
10644;DHT22;5370;50.132;8.626;2024-03-22T03:39:41;8.70;79.80
10644;DHT22;5370;50.132;8.626;2024-03-22T03:42:07;8.70;79.90
10644;DHT22;5370;50.132;8.626;2024-03-22T03:44:33;8.60;80.00
10644;DHT22;5370;50.132;8.626;2024-03-22T03:47:00;8.70;80.30
10644;DHT22;5370;50.132;8.626;2024-03-22T03:49:26;8.70;80.40
10644;DHT22;5370;50.132;8.626;2024-03-22T03:51:51;8.70;80.60
10644;DHT22;5370;50.132;8.626;2024-03-22T03:54:17;8.70;80.80
10644;DHT22;5370;50.132;8.626;2024-03-22T03:56:42;8.70;81.00
10644;DHT22;5370;50.132;8.626;2024-03-22T03:59:10;8.70;81.10
10644;DHT22;5370;50.132;8.626;2024-03-22T04:01:36;8.80;81.40
10644;DHT22;5370;50.132;8.626;2024-03-22T04:04:03;8.80;81.60
10644;DHT22;5370;50.132;8.626;2024-03-22T04:06:29;8.80;81.80
10644;DHT22;5370;50.132;8.626;2024-03-22T04:08:54;8.80;81.90
10644;DHT22;5370;50.132;8.626;2024-03-22T04:11:20;8.80;82.10
10644;DHT22;5370;50.132;8.626;2024-03-22T04:13:45;8.80;82.30
10644;DHT22;5370;50.132;8.626;2024-03-22T04:16:11;8.90;82.60
10644;DHT22;5370;50.132;8.626;2024-03-22T04:18:36;8.90;82.70
10644;DHT22;5370;50.132;8.626;2024-03-22T04:21:05;8.90;82.90
10644;DHT22;5370;50.132;8.626;2024-03-22T04:23:34;9.00;83.10
10644;DHT22;5370;50.132;8.626;2024-03-22T04:26:00;9.00;83.30
10644;DHT22;5370;50.132;8.626;2024-03-22T04:28:27;9.00;83.30
10644;DHT22;5370;50.132;8.626;2024-03-22T04:31:03;9.00;83.50
10644;DHT22;5370;50.132;8.626;2024-03-22T04:33:31;9.10;83.70
10644;DHT22;5370;50.132;8.626;2024-03-22T04:35:57;9.10;83.80
10644;DHT22;5370;50.132;8.626;2024-03-22T04:38:24;9.10;83.90
10644;DHT22;5370;50.132;8.626;2024-03-22T04:40:50;9.20;84.10
10644;DHT22;5370;50.132;8.626;2024-03-22T04:43:17;9.20;84.20
10644;DHT22;5370;50.132;8.626;2024-03-22T04:45:43;9.30;84.40
10644;DHT22;5370;50.132;8.626;2024-03-22T04:48:09;9.30;84.40
10644;DHT22;5370;50.132;8.626;2024-03-22T04:50:35;9.30;84.50
10644;DHT22;5370;50.132;8.626;2024-03-22T04:53:04;9.40;84.60
10644;DHT22;5370;50.132;8.626;2024-03-22T04:55:31;9.40;84.70
10644;DHT22;5370;50.132;8.626;2024-03-22T04:57:56;9.40;84.90
10644;DHT22;5370;50.132;8.626;2024-03-22T05:00:22;9.50;85.00
10644;DHT22;5370;50.132;8.626;2024-03-22T05:02:47;9.50;85.10
10644;DHT22;5370;50.132;8.626;2024-03-22T05:05:13;9.60;85.20
10644;DHT22;5370;50.132;8.626;2024-03-22T05:07:39;9.60;85.20
10644;DHT22;5370;50.132;8.626;2024-03-22T05:10:05;9.60;85.20
10644;DHT22;5370;50.132;8.626;2024-03-22T05:12:33;9.70;85.20
10644;DHT22;5370;50.132;8.626;2024-03-22T05:14:59;9.70;85.10
10644;DHT22;5370;50.132;8.626;2024-03-22T05:17:24;9.70;85.20
10644;DHT22;5370;50.132;8.626;2024-03-22T05:19:50;9.70;85.10
10644;DHT22;5370;50.132;8.626;2024-03-22T05:22:16;9.80;85.10
10644;DHT22;5370;50.132;8.626;2024-03-22T05:24:41;9.80;85.00
10644;DHT22;5370;50.132;8.626;2024-03-22T05:27:07;9.90;85.10
10644;DHT22;5370;50.132;8.626;2024-03-22T05:29:33;9.90;85.00
10644;DHT22;5370;50.132;8.626;2024-03-22T05:31:58;9.90;84.80
10644;DHT22;5370;50.132;8.626;2024-03-22T05:34:26;9.90;84.80
10644;DHT22;5370;50.132;8.626;2024-03-22T05:36:51;9.90;84.70
10644;DHT22;5370;50.132;8.626;2024-03-22T05:39:16;9.90;84.70
10644;DHT22;5370;50.132;8.626;2024-03-22T05:41:42;9.90;84.60
10644;DHT22;5370;50.132;8.626;2024-03-22T05:44:08;10.00;83.50
10644;DHT22;5370;50.132;8.626;2024-03-22T05:46:33;10.00;83.50
10644;DHT22;5370;50.132;8.626;2024-03-22T05:48:59;10.00;83.40
10644;DHT22;5370;50.132;8.626;2024-03-22T05:51:28;10.00;83.40
10644;DHT22;5370;50.132;8.626;2024-03-22T05:53:56;10.10;83.70
10644;DHT22;5370;50.132;8.626;2024-03-22T05:56:22;10.10;83.90
10644;DHT22;5370;50.132;8.626;2024-03-22T05:58:48;10.20;83.90
10644;DHT22;5370;50.132;8.626;2024-03-22T06:01:13;10.30;83.70
10644;DHT22;5370;50.132;8.626;2024-03-22T06:03:39;10.30;83.70
10644;DHT22;5370;50.132;8.626;2024-03-22T06:06:04;10.40;83.60
10644;DHT22;5370;50.132;8.626;2024-03-22T06:08:30;10.50;83.60
10644;DHT22;5370;50.132;8.626;2024-03-22T06:10:59;10.50;83.60
10644;DHT22;5370;50.132;8.626;2024-03-22T06:13:25;10.60;83.50
10644;DHT22;5370;50.132;8.626;2024-03-22T06:15:51;10.70;83.60
10644;DHT22;5370;50.132;8.626;2024-03-22T06:18:17;10.80;83.60
10644;DHT22;5370;50.132;8.626;2024-03-22T06:20:42;11.00;83.70
10644;DHT22;5370;50.132;8.626;2024-03-22T06:23:11;11.10;83.50
10644;DHT22;5370;50.132;8.626;2024-03-22T06:25:36;11.30;83.30
10644;DHT22;5370;50.132;8.626;2024-03-22T06:28:02;11.40;82.70
10644;DHT22;5370;50.132;8.626;2024-03-22T06:30:28;11.50;82.30
10644;DHT22;5370;50.132;8.626;2024-03-22T06:32:54;11.50;81.90
10644;DHT22;5370;50.132;8.626;2024-03-22T06:35:20;11.60;81.80
10644;DHT22;5370;50.132;8.626;2024-03-22T06:37:46;11.70;81.60
10644;DHT22;5370;50.132;8.626;2024-03-22T06:40:12;11.80;81.30
10644;DHT22;5370;50.132;8.626;2024-03-22T06:42:37;11.80;80.90
10644;DHT22;5370;50.132;8.626;2024-03-22T06:45:03;11.90;80.70
10644;DHT22;5370;50.132;8.626;2024-03-22T06:47:29;11.90;80.40
10644;DHT22;5370;50.132;8.626;2024-03-22T06:49:54;12.00;80.20
10644;DHT22;5370;50.132;8.626;2024-03-22T06:52:20;12.00;80.20
10644;DHT22;5370;50.132;8.626;2024-03-22T06:54:46;12.10;80.60
10644;DHT22;5370;50.132;8.626;2024-03-22T06:57:11;12.10;80.60
10644;DHT22;5370;50.132;8.626;2024-03-22T06:59:37;12.20;80.60
10644;DHT22;5370;50.132;8.626;2024-03-22T07:02:03;12.20;80.20
10644;DHT22;5370;50.132;8.626;2024-03-22T07:04:29;12.20;79.70
10644;DHT22;5370;50.132;8.626;2024-03-22T07:06:54;12.20;79.30
10644;DHT22;5370;50.132;8.626;2024-03-22T07:09:20;12.20;79.10
10644;DHT22;5370;50.132;8.626;2024-03-22T07:11:46;12.20;78.70
10644;DHT22;5370;50.132;8.626;2024-03-22T07:14:11;12.20;78.40
10644;DHT22;5370;50.132;8.626;2024-03-22T07:16:37;12.20;78.30
10644;DHT22;5370;50.132;8.626;2024-03-22T07:19:03;12.20;78.10
10644;DHT22;5370;50.132;8.626;2024-03-22T07:21:29;12.20;78.00
10644;DHT22;5370;50.132;8.626;2024-03-22T07:23:55;12.20;77.90
10644;DHT22;5370;50.132;8.626;2024-03-22T07:26:20;12.20;77.80
10644;DHT22;5370;50.132;8.626;2024-03-22T07:28:46;12.20;77.70
10644;DHT22;5370;50.132;8.626;2024-03-22T07:31:12;12.20;77.60
10644;DHT22;5370;50.132;8.626;2024-03-22T07:33:37;12.20;77.30
10644;DHT22;5370;50.132;8.626;2024-03-22T07:36:04;12.30;77.30
10644;DHT22;5370;50.132;8.626;2024-03-22T07:38:32;12.30;77.30
10644;DHT22;5370;50.132;8.626;2024-03-22T07:40:57;12.30;77.20
10644;DHT22;5370;50.132;8.626;2024-03-22T07:43:23;12.40;77.10
10644;DHT22;5370;50.132;8.626;2024-03-22T07:45:49;12.50;77.10
10644;DHT22;5370;50.132;8.626;2024-03-22T07:48:14;12.50;77.00
10644;DHT22;5370;50.132;8.626;2024-03-22T07:50:41;12.60;76.80
10644;DHT22;5370;50.132;8.626;2024-03-22T07:53:06;12.70;76.50
10644;DHT22;5370;50.132;8.626;2024-03-22T07:55:32;12.90;76.40
10644;DHT22;5370;50.132;8.626;2024-03-22T07:57:57;12.90;76.00
10644;DHT22;5370;50.132;8.626;2024-03-22T08:00:24;13.00;75.70
10644;DHT22;5370;50.132;8.626;2024-03-22T08:02:52;13.10;75.50
10644;DHT22;5370;50.132;8.626;2024-03-22T08:05:18;13.20;75.20
10644;DHT22;5370;50.132;8.626;2024-03-22T08:07:44;13.30;74.90
10644;DHT22;5370;50.132;8.626;2024-03-22T08:10:10;13.30;74.60
10644;DHT22;5370;50.132;8.626;2024-03-22T08:12:36;13.30;74.20
10644;DHT22;5370;50.132;8.626;2024-03-22T08:15:01;13.40;74.10
10644;DHT22;5370;50.132;8.626;2024-03-22T08:17:28;13.40;73.80
10644;DHT22;5370;50.132;8.626;2024-03-22T08:19:53;13.50;73.80
10644;DHT22;5370;50.132;8.626;2024-03-22T08:22:19;13.50;74.20
10644;DHT22;5370;50.132;8.626;2024-03-22T08:24:44;13.50;73.40
10644;DHT22;5370;50.132;8.626;2024-03-22T08:27:10;13.60;73.10
10644;DHT22;5370;50.132;8.626;2024-03-22T08:29:35;13.60;72.90
10644;DHT22;5370;50.132;8.626;2024-03-22T08:32:01;13.60;72.80
10644;DHT22;5370;50.132;8.626;2024-03-22T08:34:30;13.70;72.70
10644;DHT22;5370;50.132;8.626;2024-03-22T08:36:55;13.80;72.70
10644;DHT22;5370;50.132;8.626;2024-03-22T08:39:21;13.80;72.40
10644;DHT22;5370;50.132;8.626;2024-03-22T08:41:47;13.90;72.40
10644;DHT22;5370;50.132;8.626;2024-03-22T08:44:12;14.00;72.20
10644;DHT22;5370;50.132;8.626;2024-03-22T08:46:38;14.10;72.00
10644;DHT22;5370;50.132;8.626;2024-03-22T08:49:04;14.20;71.70
10644;DHT22;5370;50.132;8.626;2024-03-22T08:51:30;14.30;71.50
10644;DHT22;5370;50.132;8.626;2024-03-22T08:53:55;14.60;69.50
10644;DHT22;5370;50.132;8.626;2024-03-22T08:56:21;14.60;69.40
10644;DHT22;5370;50.132;8.626;2024-03-22T08:58:47;14.70;69.50
10644;DHT22;5370;50.132;8.626;2024-03-22T09:01:12;14.90;69.70
10644;DHT22;5370;50.132;8.626;2024-03-22T09:03:38;15.10;69.60
10644;DHT22;5370;50.132;8.626;2024-03-22T09:06:04;15.20;69.30
10644;DHT22;5370;50.132;8.626;2024-03-22T09:08:30;15.40;68.90
10644;DHT22;5370;50.132;8.626;2024-03-22T09:10:56;15.60;68.30
10644;DHT22;5370;50.132;8.626;2024-03-22T09:13:22;15.70;67.80
10644;DHT22;5370;50.132;8.626;2024-03-22T09:15:48;15.80;67.50
10644;DHT22;5370;50.132;8.626;2024-03-22T09:18:14;16.00;67.50
10644;DHT22;5370;50.132;8.626;2024-03-22T09:20:40;16.20;67.00
10644;DHT22;5370;50.132;8.626;2024-03-22T09:23:05;16.40;66.60
10644;DHT22;5370;50.132;8.626;2024-03-22T09:25:31;16.50;66.80
10644;DHT22;5370;50.132;8.626;2024-03-22T09:27:56;16.70;65.80
10644;DHT22;5370;50.132;8.626;2024-03-22T09:30:22;16.80;65.20
10644;DHT22;5370;50.132;8.626;2024-03-22T09:32:47;17.00;64.80
10644;DHT22;5370;50.132;8.626;2024-03-22T09:35:13;17.20;64.50
10644;DHT22;5370;50.132;8.626;2024-03-22T09:37:40;17.40;63.80
10644;DHT22;5370;50.132;8.626;2024-03-22T09:40:06;17.50;63.20
10644;DHT22;5370;50.132;8.626;2024-03-22T09:42:33;17.70;62.90
10644;DHT22;5370;50.132;8.626;2024-03-22T09:45:02;17.80;62.30
10644;DHT22;5370;50.132;8.626;2024-03-22T09:47:28;18.00;61.80
10644;DHT22;5370;50.132;8.626;2024-03-22T09:49:54;18.10;61.30
10644;DHT22;5370;50.132;8.626;2024-03-22T09:52:20;18.20;61.00
10644;DHT22;5370;50.132;8.626;2024-03-22T09:54:47;18.30;60.80
10644;DHT22;5370;50.132;8.626;2024-03-22T09:57:16;18.40;60.20
10644;DHT22;5370;50.132;8.626;2024-03-22T09:59:45;18.50;59.80
10644;DHT22;5370;50.132;8.626;2024-03-22T10:02:12;18.60;59.60
10644;DHT22;5370;50.132;8.626;2024-03-22T10:04:38;18.60;59.20
10644;DHT22;5370;50.132;8.626;2024-03-22T10:07:04;18.60;58.80
10644;DHT22;5370;50.132;8.626;2024-03-22T10:09:30;18.60;58.80
10644;DHT22;5370;50.132;8.626;2024-03-22T10:11:57;18.70;58.80
10644;DHT22;5370;50.132;8.626;2024-03-22T10:14:23;18.80;58.50
10644;DHT22;5370;50.132;8.626;2024-03-22T10:16:51;19.00;58.30
10644;DHT22;5370;50.132;8.626;2024-03-22T10:19:20;19.00;57.90
10644;DHT22;5370;50.132;8.626;2024-03-22T10:21:47;19.20;57.80
10644;DHT22;5370;50.132;8.626;2024-03-22T10:24:14;19.30;57.50
10644;DHT22;5370;50.132;8.626;2024-03-22T10:26:39;19.40;57.10
10644;DHT22;5370;50.132;8.626;2024-03-22T10:29:08;19.50;56.80
10644;DHT22;5370;50.132;8.626;2024-03-22T10:31:35;19.60;56.60
10644;DHT22;5370;50.132;8.626;2024-03-22T10:34:02;19.70;56.30
10644;DHT22;5370;50.132;8.626;2024-03-22T10:36:29;19.70;56.00
10644;DHT22;5370;50.132;8.626;2024-03-22T10:38:57;19.70;55.70
10644;DHT22;5370;50.132;8.626;2024-03-22T10:41:24;19.80;55.50
10644;DHT22;5370;50.132;8.626;2024-03-22T10:43:49;19.80;55.50
10644;DHT22;5370;50.132;8.626;2024-03-22T10:46:16;19.80;55.60
10644;DHT22;5370;50.132;8.626;2024-03-22T10:48:43;19.90;55.60
10644;DHT22;5370;50.132;8.626;2024-03-22T10:51:10;20.00;55.20
10644;DHT22;5370;50.132;8.626;2024-03-22T10:53:37;20.00;55.00
10644;DHT22;5370;50.132;8.626;2024-03-22T10:56:04;19.90;54.70
10644;DHT22;5370;50.132;8.626;2024-03-22T10:58:31;19.90;54.50
10644;DHT22;5370;50.132;8.626;2024-03-22T11:00:57;19.80;54.40
10644;DHT22;5370;50.132;8.626;2024-03-22T11:03:25;19.80;54.70
10644;DHT22;5370;50.132;8.626;2024-03-22T11:05:55;19.90;55.00
10644;DHT22;5370;50.132;8.626;2024-03-22T11:08:28;19.90;54.00
10644;DHT22;5370;50.132;8.626;2024-03-22T11:10:56;19.80;53.60
10644;DHT22;5370;50.132;8.626;2024-03-22T11:13:22;19.70;53.80
10644;DHT22;5370;50.132;8.626;2024-03-22T11:15:49;19.80;54.20
10644;DHT22;5370;50.132;8.626;2024-03-22T11:18:14;19.90;54.40
10644;DHT22;5370;50.132;8.626;2024-03-22T11:20:42;20.00;54.40
10644;DHT22;5370;50.132;8.626;2024-03-22T11:23:07;20.20;54.30
10644;DHT22;5370;50.132;8.626;2024-03-22T11:25:34;20.30;54.10
10644;DHT22;5370;50.132;8.626;2024-03-22T11:28:00;20.40;53.80
10644;DHT22;5370;50.132;8.626;2024-03-22T11:30:29;20.50;53.70
10644;DHT22;5370;50.132;8.626;2024-03-22T11:32:55;20.70;53.70
10644;DHT22;5370;50.132;8.626;2024-03-22T11:35:21;20.70;53.20
10644;DHT22;5370;50.132;8.626;2024-03-22T11:37:47;20.80;53.00
10644;DHT22;5370;50.132;8.626;2024-03-22T11:40:14;20.80;52.90
10644;DHT22;5370;50.132;8.626;2024-03-22T11:42:41;20.80;52.80
10644;DHT22;5370;50.132;8.626;2024-03-22T11:45:09;20.80;52.70
10644;DHT22;5370;50.132;8.626;2024-03-22T11:47:36;20.80;52.50
10644;DHT22;5370;50.132;8.626;2024-03-22T11:50:02;20.70;52.40
10644;DHT22;5370;50.132;8.626;2024-03-22T11:52:28;20.70;52.30
10644;DHT22;5370;50.132;8.626;2024-03-22T11:54:54;20.70;52.20
10644;DHT22;5370;50.132;8.626;2024-03-22T11:57:23;20.60;52.20
10644;DHT22;5370;50.132;8.626;2024-03-22T11:59:50;20.50;52.40
10644;DHT22;5370;50.132;8.626;2024-03-22T12:02:16;20.40;52.50
10644;DHT22;5370;50.132;8.626;2024-03-22T12:04:44;20.40;52.50
10644;DHT22;5370;50.132;8.626;2024-03-22T12:07:17;20.30;52.70
10644;DHT22;5370;50.132;8.626;2024-03-22T12:09:45;20.30;52.70
10644;DHT22;5370;50.132;8.626;2024-03-22T12:12:12;20.30;52.70
10644;DHT22;5370;50.132;8.626;2024-03-22T12:14:38;20.40;52.70
10644;DHT22;5370;50.132;8.626;2024-03-22T12:17:05;20.40;52.40
10644;DHT22;5370;50.132;8.626;2024-03-22T12:19:30;20.40;52.50
10644;DHT22;5370;50.132;8.626;2024-03-22T12:21:56;20.50;52.60
10644;DHT22;5370;50.132;8.626;2024-03-22T12:24:23;20.50;52.50
10644;DHT22;5370;50.132;8.626;2024-03-22T12:26:49;20.50;52.50
10644;DHT22;5370;50.132;8.626;2024-03-22T12:29:18;20.60;52.40
10644;DHT22;5370;50.132;8.626;2024-03-22T12:31:44;20.70;52.00
10644;DHT22;5370;50.132;8.626;2024-03-22T12:34:10;20.70;51.70
10644;DHT22;5370;50.132;8.626;2024-03-22T12:36:35;20.80;51.90
10644;DHT22;5370;50.132;8.626;2024-03-22T12:39:01;21.00;52.00
10644;DHT22;5370;50.132;8.626;2024-03-22T12:41:28;21.10;51.80
10644;DHT22;5370;50.132;8.626;2024-03-22T12:43:54;21.20;51.10
10644;DHT22;5370;50.132;8.626;2024-03-22T12:46:20;21.30;51.10
10644;DHT22;5370;50.132;8.626;2024-03-22T12:48:46;21.40;50.90
10644;DHT22;5370;50.132;8.626;2024-03-22T12:51:11;21.50;50.80
10644;DHT22;5370;50.132;8.626;2024-03-22T12:53:37;21.50;50.60
10644;DHT22;5370;50.132;8.626;2024-03-22T12:56:03;21.50;50.60
10644;DHT22;5370;50.132;8.626;2024-03-22T12:58:30;21.40;50.50
10644;DHT22;5370;50.132;8.626;2024-03-22T13:00:56;21.40;50.80
10644;DHT22;5370;50.132;8.626;2024-03-22T13:03:21;21.30;50.70
10644;DHT22;5370;50.132;8.626;2024-03-22T13:05:47;21.20;50.80
10644;DHT22;5370;50.132;8.626;2024-03-22T13:08:12;21.20;51.00
10644;DHT22;5370;50.132;8.626;2024-03-22T13:10:38;21.20;51.20
10644;DHT22;5370;50.132;8.626;2024-03-22T13:13:08;21.20;50.80
10644;DHT22;5370;50.132;8.626;2024-03-22T13:15:34;21.00;50.50
10644;DHT22;5370;50.132;8.626;2024-03-22T13:18:00;21.00;50.40
10644;DHT22;5370;50.132;8.626;2024-03-22T13:20:26;20.90;50.50
10644;DHT22;5370;50.132;8.626;2024-03-22T13:22:51;20.80;50.70
10644;DHT22;5370;50.132;8.626;2024-03-22T13:25:17;20.70;50.60
10644;DHT22;5370;50.132;8.626;2024-03-22T13:27:44;20.70;50.90
10644;DHT22;5370;50.132;8.626;2024-03-22T13:30:09;20.70;51.20
10644;DHT22;5370;50.132;8.626;2024-03-22T13:32:36;20.70;51.10
10644;DHT22;5370;50.132;8.626;2024-03-22T13:35:03;20.70;51.20
10644;DHT22;5370;50.132;8.626;2024-03-22T13:37:28;20.70;51.20
10644;DHT22;5370;50.132;8.626;2024-03-22T13:39:54;20.70;51.20
10644;DHT22;5370;50.132;8.626;2024-03-22T13:42:20;20.80;51.20
10644;DHT22;5370;50.132;8.626;2024-03-22T13:44:45;20.70;51.10
10644;DHT22;5370;50.132;8.626;2024-03-22T13:47:11;20.60;51.00
10644;DHT22;5370;50.132;8.626;2024-03-22T13:49:36;20.50;51.10
10644;DHT22;5370;50.132;8.626;2024-03-22T13:52:04;20.30;51.20
10644;DHT22;5370;50.132;8.626;2024-03-22T13:54:30;20.20;51.40
10644;DHT22;5370;50.132;8.626;2024-03-22T13:56:55;20.10;51.70
10644;DHT22;5370;50.132;8.626;2024-03-22T13:59:21;19.90;51.80
10644;DHT22;5370;50.132;8.626;2024-03-22T14:01:46;19.90;52.00
10644;DHT22;5370;50.132;8.626;2024-03-22T14:04:13;19.80;52.10
10644;DHT22;5370;50.132;8.626;2024-03-22T14:06:40;19.70;52.30
10644;DHT22;5370;50.132;8.626;2024-03-22T14:09:07;19.60;52.40
10644;DHT22;5370;50.132;8.626;2024-03-22T14:11:35;19.60;52.60
10644;DHT22;5370;50.132;8.626;2024-03-22T14:14:01;19.50;52.70
10644;DHT22;5370;50.132;8.626;2024-03-22T14:16:27;19.40;52.80
10644;DHT22;5370;50.132;8.626;2024-03-22T14:18:53;19.40;52.90
10644;DHT22;5370;50.132;8.626;2024-03-22T14:21:19;19.40;53.00
10644;DHT22;5370;50.132;8.626;2024-03-22T14:23:46;19.30;53.10
10644;DHT22;5370;50.132;8.626;2024-03-22T14:26:12;19.20;53.20
10644;DHT22;5370;50.132;8.626;2024-03-22T14:28:38;19.20;53.30
10644;DHT22;5370;50.132;8.626;2024-03-22T14:31:08;19.20;53.40
10644;DHT22;5370;50.132;8.626;2024-03-22T14:33:38;19.10;53.40
10644;DHT22;5370;50.132;8.626;2024-03-22T14:36:07;19.10;53.50
10644;DHT22;5370;50.132;8.626;2024-03-22T14:38:34;19.10;53.50
10644;DHT22;5370;50.132;8.626;2024-03-22T14:41:00;19.10;53.70
10644;DHT22;5370;50.132;8.626;2024-03-22T14:43:26;19.10;53.70
10644;DHT22;5370;50.132;8.626;2024-03-22T14:45:55;19.10;53.80
10644;DHT22;5370;50.132;8.626;2024-03-22T14:48:21;19.20;53.80
10644;DHT22;5370;50.132;8.626;2024-03-22T14:50:48;19.20;53.70
10644;DHT22;5370;50.132;8.626;2024-03-22T14:53:14;19.20;53.70
10644;DHT22;5370;50.132;8.626;2024-03-22T14:55:54;19.30;53.80
10644;DHT22;5370;50.132;8.626;2024-03-22T14:58:24;19.30;53.80
10644;DHT22;5370;50.132;8.626;2024-03-22T15:00:54;19.20;53.80
10644;DHT22;5370;50.132;8.626;2024-03-22T15:03:20;19.20;53.70
10644;DHT22;5370;50.132;8.626;2024-03-22T15:05:45;19.30;53.90
10644;DHT22;5370;50.132;8.626;2024-03-22T15:08:11;19.30;53.90
10644;DHT22;5370;50.132;8.626;2024-03-22T15:10:37;19.30;53.90
10644;DHT22;5370;50.132;8.626;2024-03-22T15:13:03;19.40;53.90
10644;DHT22;5370;50.132;8.626;2024-03-22T15:15:29;19.40;53.70
10644;DHT22;5370;50.132;8.626;2024-03-22T15:17:54;19.40;53.70
10644;DHT22;5370;50.132;8.626;2024-03-22T15:20:20;19.40;53.80
10644;DHT22;5370;50.132;8.626;2024-03-22T15:22:45;19.30;53.60
10644;DHT22;5370;50.132;8.626;2024-03-22T15:25:11;19.30;53.60
10644;DHT22;5370;50.132;8.626;2024-03-22T15:27:37;19.30;54.30
10644;DHT22;5370;50.132;8.626;2024-03-22T15:30:02;19.30;53.80
10644;DHT22;5370;50.132;8.626;2024-03-22T15:32:31;19.30;53.90
10644;DHT22;5370;50.132;8.626;2024-03-22T15:34:56;19.20;53.90
10644;DHT22;5370;50.132;8.626;2024-03-22T15:37:22;19.20;53.90
10644;DHT22;5370;50.132;8.626;2024-03-22T15:39:48;19.20;54.00
10644;DHT22;5370;50.132;8.626;2024-03-22T15:42:14;19.20;54.10
10644;DHT22;5370;50.132;8.626;2024-03-22T15:44:40;19.20;54.20